Time;durP1;ratioP1;P1;durP2;ratioP2;P2;SDS_P1;SDS_P2;PMS_P1;PMS_P2;Temp;Humidity;BMP_temperature;BMP_pressure;BME280_temperature;BME280_humidity;BME280_pressure;Samples;Min_cycle;Max_cycle;Signal;HPM_P1;HPM_P2
2022/03/04 00:01:15;;;;;;;19.38;9.00;;;0.60;99.90;;;;;;5095034;27;20042;-84
2022/03/04 00:03:41;;;;;;;19.33;9.43;;;0.50;99.90;;;;;;5112398;27;20042;-84
2022/03/04 00:06:07;;;;;;;19.15;8.80;;;0.50;99.90;;;;;;5094603;27;20051;-84
2022/03/04 00:08:32;;;;;;;18.45;8.88;;;0.60;99.90;;;;;;5114867;27;20038;-84
2022/03/04 00:10:58;;;;;;;18.63;8.55;;;1.70;99.90;;;;;;5115656;27;20410;-84
2022/03/04 00:13:24;;;;;;;21.60;10.27;;;0.50;99.90;;;;;;5106670;27;20048;-84
2022/03/04 00:15:50;;;;;;;21.80;9.60;;;0.50;99.90;;;;;;5112529;27;20054;-83
2022/03/04 00:18:16;;;;;;;25.25;9.68;;;0.50;99.90;;;;;;5104733;27;20058;-84
2022/03/04 00:20:42;;;;;;;19.88;8.77;;;0.50;99.90;;;;;;5113841;27;20050;-84
2022/03/04 00:23:08;;;;;;;20.08;8.75;;;0.50;99.90;;;;;;5113944;27;20138;-84
2022/03/04 00:25:34;;;;;;;19.63;9.45;;;0.40;99.90;;;;;;5115338;27;20594;-84
2022/03/04 00:28:00;;;;;;;22.70;9.35;;;0.40;99.90;;;;;;5109478;27;20255;-84
2022/03/04 00:30:25;;;;;;;21.52;9.70;;;0.40;99.90;;;;;;5085737;28;20044;-84
2022/03/04 00:32:51;;;;;;;19.38;8.75;;;0.40;99.90;;;;;;5110122;27;20129;-84
2022/03/04 00:35:17;;;;;;;20.60;9.55;;;0.40;99.90;;;;;;5103487;27;20039;-84
2022/03/04 00:37:43;;;;;;;21.63;10.40;;;0.40;99.90;;;;;;5094103;27;20096;-84
2022/03/04 00:40:10;;;;;;;21.92;10.18;;;0.40;99.90;;;;;;5119088;27;20043;-84
2022/03/04 00:42:36;;;;;;;19.95;9.57;;;0.30;99.90;;;;;;5097921;27;20145;-83
2022/03/04 00:45:02;;;;;;;23.00;10.10;;;0.30;99.90;;;;;;5098919;27;20061;-84
2022/03/04 00:47:28;;;;;;;21.45;9.90;;;0.30;99.90;;;;;;5081703;27;20092;-84
2022/03/04 00:49:54;;;;;;;25.00;10.63;;;0.20;99.90;;;;;;5121888;27;20952;-84
2022/03/04 00:52:19;;;;;;;23.88;9.75;;;0.20;99.90;;;;;;5105327;27;20043;-84
2022/03/04 00:54:45;;;;;;;22.80;10.68;;;0.20;99.90;;;;;;5108673;27;20058;-84
2022/03/04 00:57:11;;;;;;;21.25;10.25;;;0.20;99.90;;;;;;5103008;27;20092;-84
2022/03/04 00:59:36;;;;;;;23.27;10.98;;;0.20;99.90;;;;;;5119792;27;20039;-84
2022/03/04 01:02:02;;;;;;;20.77;10.00;;;0.20;99.90;;;;;;5118605;27;20042;-84
2022/03/04 01:04:28;;;;;;;23.30;10.77;;;0.20;99.90;;;;;;5099785;27;20058;-84
2022/03/04 01:06:54;;;;;;;23.50;10.27;;;0.20;99.90;;;;;;5101645;27;20046;-84
2022/03/04 01:09:19;;;;;;;22.40;10.55;;;0.20;99.90;;;;;;5119986;27;20045;-84
2022/03/04 01:11:45;;;;;;;19.92;9.73;;;0.20;99.90;;;;;;5102525;27;20095;-84
2022/03/04 01:14:11;;;;;;;26.63;12.00;;;0.20;99.90;;;;;;5118475;27;20039;-84
2022/03/04 01:16:37;;;;;;;22.27;10.95;;;0.20;99.90;;;;;;5111915;27;20041;-84
2022/03/04 01:19:03;;;;;;;23.48;10.15;;;0.20;99.90;;;;;;5130580;27;20042;-83
2022/03/04 01:21:29;;;;;;;21.40;10.85;;;0.20;99.90;;;;;;5104784;27;20082;-84
2022/03/04 01:23:55;;;;;;;26.33;11.25;;;0.20;99.90;;;;;;5100393;27;20066;-84
2022/03/04 01:26:20;;;;;;;23.67;10.52;;;0.10;99.90;;;;;;5100733;27;20051;-84
2022/03/04 01:28:46;;;;;;;24.33;10.68;;;0.10;99.90;;;;;;5095821;27;20041;-84
2022/03/04 01:31:12;;;;;;;24.75;11.27;;;0.10;99.90;;;;;;5105304;27;20038;-83
2022/03/04 01:33:39;;;;;;;24.25;11.00;;;0.10;99.90;;;;;;5118823;27;20039;-84
2022/03/04 01:36:05;;;;;;;23.50;11.23;;;0.10;99.90;;;;;;5126559;27;20500;-84
2022/03/04 01:38:31;;;;;;;25.25;11.38;;;0.10;99.90;;;;;;5094745;27;20487;-84
2022/03/04 01:40:56;;;;;;;26.33;12.80;;;0.10;99.90;;;;;;5098862;27;20088;-84
2022/03/04 01:43:22;;;;;;;27.05;11.68;;;0.10;99.90;;;;;;5117091;27;20892;-84
2022/03/04 01:45:48;;;;;;;26.10;11.80;;;0.00;99.90;;;;;;5101448;27;20066;-83
2022/03/04 01:48:14;;;;;;;25.73;11.05;;;0.00;99.90;;;;;;5099816;27;20159;-84
2022/03/04 01:50:40;;;;;;;24.67;10.85;;;-0.10;99.90;;;;;;5109806;27;20934;-83
2022/03/04 01:53:05;;;;;;;28.17;11.25;;;-0.10;99.90;;;;;;5120991;27;20078;-83
2022/03/04 01:55:31;;;;;;;22.92;10.68;;;-0.10;99.90;;;;;;5110495;27;20431;-84
2022/03/04 01:57:57;;;;;;;27.42;11.10;;;-0.10;99.90;;;;;;5118309;27;20039;-84
2022/03/04 02:00:23;;;;;;;34.08;14.10;;;-0.10;99.90;;;;;;5109786;27;20067;-83
2022/03/04 02:02:49;;;;;;;32.55;12.98;;;-0.10;99.90;;;;;;5124432;27;20103;-84
2022/03/04 02:05:16;;;;;;;25.83;12.18;;;-0.10;99.90;;;;;;5138148;27;20035;-84
2022/03/04 02:07:43;;;;;;;21.80;11.20;;;-0.10;99.90;;;;;;5122049;27;20054;-84
2022/03/04 02:10:09;;;;;;;27.65;12.18;;;-0.20;99.90;;;;;;5118905;27;20924;-85
2022/03/04 02:12:35;;;;;;;27.33;11.60;;;-0.20;99.90;;;;;;5092862;27;20515;-85
2022/03/04 02:15:03;;;;;;;26.80;11.55;;;-0.20;99.90;;;;;;5114172;27;20415;-85
2022/03/04 02:17:28;;;;;;;30.30;12.45;;;-0.20;99.90;;;;;;5097288;27;20072;-84
2022/03/04 02:19:58;;;;;;;31.30;12.98;;;-0.20;99.90;;;;;;5119132;27;20051;-84
2022/03/04 02:22:24;;;;;;;30.33;12.98;;;-0.20;99.90;;;;;;5099894;27;20071;-84
2022/03/04 02:24:49;;;;;;;30.65;13.07;;;-0.30;99.90;;;;;;5119735;27;20133;-85
2022/03/04 02:27:15;;;;;;;33.97;13.40;;;-0.60;99.90;;;;;;5088883;27;20051;-84
2022/03/04 02:29:41;;;;;;;28.70;13.88;;;-0.40;99.90;;;;;;5111632;27;20034;-84
2022/03/04 02:32:07;;;;;;;33.10;13.88;;;0.50;99.90;;;;;;5119093;27;20058;-85
2022/03/04 02:34:33;;;;;;;32.00;14.15;;;-0.30;99.90;;;;;;5117041;27;20044;-83
2022/03/04 02:36:59;;;;;;;33.80;14.90;;;-0.40;99.90;;;;;;5117424;27;20058;-84
2022/03/04 02:39:25;;;;;;;31.20;13.60;;;-0.40;99.90;;;;;;5091357;27;20509;-85
2022/03/04 02:41:51;;;;;;;33.17;13.70;;;-0.50;99.90;;;;;;5087462;27;20100;-84
2022/03/04 02:44:20;;;;;;;37.05;14.70;;;-0.50;99.90;;;;;;5114631;27;20039;-83
2022/03/04 02:46:46;;;;;;;33.42;14.25;;;-0.50;99.90;;;;;;5101421;27;20152;-84
2022/03/04 02:49:12;;;;;;;32.47;13.50;;;-0.50;99.90;;;;;;5099010;27;20035;-84
2022/03/04 02:51:38;;;;;;;30.08;13.48;;;-0.60;99.90;;;;;;5123327;27;20027;-84
2022/03/04 02:54:05;;;;;;;37.28;15.60;;;-0.60;99.90;;;;;;5093956;27;20046;-84
2022/03/04 02:56:31;;;;;;;34.08;14.48;;;-0.60;99.90;;;;;;5089281;27;20057;-83
2022/03/04 02:58:56;;;;;;;36.05;14.25;;;-0.60;99.90;;;;;;5117493;27;20122;-84
2022/03/04 03:01:22;;;;;;;31.85;14.23;;;-0.60;99.90;;;;;;5090588;27;20039;-84
2022/03/04 03:03:48;;;;;;;37.60;15.55;;;-0.60;99.90;;;;;;5089167;27;20160;-83
2022/03/04 03:06:14;;;;;;;29.15;13.30;;;-0.70;99.90;;;;;;5099140;27;20039;-83
2022/03/04 03:08:39;;;;;;;33.53;14.80;;;-0.70;99.90;;;;;;5110141;27;21016;-83
2022/03/04 03:11:05;;;;;;;33.08;13.80;;;-0.70;99.90;;;;;;5118606;27;20040;-84
2022/03/04 03:13:31;;;;;;;34.65;13.00;;;-0.70;99.90;;;;;;5097331;27;20054;-84
2022/03/04 03:15:57;;;;;;;33.63;14.23;;;-0.70;99.90;;;;;;5107320;27;20039;-82
2022/03/04 03:18:23;;;;;;;33.88;14.18;;;-0.80;99.90;;;;;;5084073;27;20118;-84
2022/03/04 03:20:49;;;;;;;32.08;14.30;;;-0.80;99.90;;;;;;5083049;27;20134;-84
2022/03/04 03:23:14;;;;;;;32.03;14.30;;;-0.80;99.90;;;;;;5097077;27;20475;-84
2022/03/04 03:25:40;;;;;;;32.15;14.45;;;-0.80;99.90;;;;;;5099085;27;20174;-84
2022/03/04 03:28:06;;;;;;;28.92;14.05;;;-0.80;99.90;;;;;;5100907;27;20123;-84
2022/03/04 03:30:32;;;;;;;33.75;14.95;;;-0.80;99.90;;;;;;5097067;27;20061;-84
2022/03/04 03:32:57;;;;;;;32.15;14.20;;;0.40;99.90;;;;;;5114411;27;20520;-85
2022/03/04 03:35:23;;;;;;;36.85;14.80;;;-0.90;99.90;;;;;;5101056;27;20043;-85
2022/03/04 03:37:50;;;;;;;36.28;16.02;;;-0.50;99.90;;;;;;5100639;27;20518;-85
2022/03/04 03:40:16;;;;;;;37.67;16.80;;;0.70;99.90;;;;;;5109535;27;20040;-85
2022/03/04 03:42:42;;;;;;;35.58;14.70;;;-0.90;99.90;;;;;;5109314;27;20058;-85
2022/03/04 03:45:10;;;;;;;34.10;16.08;;;-1.00;99.90;;;;;;5102797;27;20046;-85
2022/03/04 03:47:38;;;;;;;32.10;15.32;;;0.60;99.90;;;;;;5091054;27;20093;-85
2022/03/04 03:50:06;;;;;;;36.92;15.88;;;-1.00;99.90;;;;;;5117751;27;20046;-85
2022/03/04 03:52:32;;;;;;;41.40;15.77;;;-1.00;99.90;;;;;;5089493;27;20034;-85
2022/03/04 03:54:58;;;;;;;33.83;14.23;;;-1.00;99.90;;;;;;5097736;27;20050;-85
2022/03/04 03:57:24;;;;;;;33.15;15.05;;;-1.10;99.90;;;;;;5105265;27;20039;-84
2022/03/04 03:59:53;;;;;;;37.65;15.40;;;-1.10;99.90;;;;;;5118261;27;20045;-85
2022/03/04 04:02:18;;;;;;;36.05;15.55;;;-0.90;99.90;;;;;;5099424;27;20047;-86
2022/03/04 04:04:46;;;;;;;38.10;16.40;;;-1.30;99.90;;;;;;5097956;27;20054;-85
2022/03/04 04:07:12;;;;;;;38.88;15.18;;;-0.40;99.90;;;;;;5110379;27;20074;-86
2022/03/04 04:09:38;;;;;;;35.28;14.73;;;-1.30;99.90;;;;;;5087278;27;20039;-86
2022/03/04 04:12:04;;;;;;;41.00;17.10;;;-1.10;99.90;;;;;;5096490;27;20043;-85
2022/03/04 04:14:30;;;;;;;36.38;16.30;;;-1.20;99.90;;;;;;5098050;27;20047;-87
2022/03/04 04:16:56;;;;;;;47.67;17.05;;;-1.20;99.90;;;;;;5095970;27;20035;-86
2022/03/04 04:19:23;;;;;;;35.83;15.95;;;-1.20;99.90;;;;;;5091813;27;20047;-87
2022/03/04 04:21:50;;;;;;;38.72;15.90;;;-1.20;99.90;;;;;;5097323;27;20043;-87
2022/03/04 04:24:16;;;;;;;41.15;17.27;;;-1.20;99.90;;;;;;5097652;27;20047;-86
2022/03/04 04:26:42;;;;;;;38.25;16.45;;;-0.40;99.90;;;;;;5088641;27;20046;-87
2022/03/04 04:29:08;;;;;;;39.22;16.40;;;-1.30;99.90;;;;;;5081685;27;20096;-86
2022/03/04 04:31:35;;;;;;;40.08;15.85;;;-1.20;99.90;;;;;;5107497;28;20031;-87
2022/03/04 04:34:02;;;;;;;43.88;16.67;;;-0.40;99.90;;;;;;5090287;27;20403;-84
2022/03/04 04:36:29;;;;;;;41.00;16.35;;;0.30;99.90;;;;;;5096772;27;20049;-86
2022/03/04 04:38:55;;;;;;;42.17;17.63;;;-1.00;99.90;;;;;;5097031;27;20593;-86
2022/03/04 04:41:22;;;;;;;42.25;18.23;;;-1.30;99.90;;;;;;5102766;27;20544;-87
2022/03/04 04:43:48;;;;;;;46.75;18.80;;;-1.30;99.90;;;;;;5082178;27;20040;-87
2022/03/04 04:46:14;;;;;;;41.17;16.90;;;-1.30;99.90;;;;;;5087059;27;20100;-87
2022/03/04 04:48:40;;;;;;;40.30;17.02;;;-1.30;99.90;;;;;;5091702;27;20043;-87
2022/03/04 04:51:06;;;;;;;46.00;18.88;;;-1.20;99.90;;;;;;5103111;28;20040;-87
2022/03/04 04:53:34;;;;;;;45.70;18.00;;;0.40;99.90;;;;;;5093073;27;20182;-85
2022/03/04 04:56:00;;;;;;;44.78;18.45;;;-1.50;99.90;;;;;;5081493;27;20048;-86
2022/03/04 04:58:26;;;;;;;42.92;18.00;;;-1.60;99.90;;;;;;5095541;27;20089;-87
2022/03/04 05:00:55;;;;;;;45.22;17.60;;;-1.40;99.90;;;;;;5093592;27;20039;-84
2022/03/04 05:03:25;;;;;;;42.58;17.05;;;-1.40;99.90;;;;;;5108946;27;20155;-85
2022/03/04 05:05:52;;;;;;;43.75;17.40;;;-1.30;99.90;;;;;;5087644;27;20043;-87
2022/03/04 05:08:17;;;;;;;41.67;17.50;;;-1.40;99.90;;;;;;5096038;27;20131;-86
2022/03/04 05:10:44;;;;;;;43.65;17.77;;;-1.40;99.90;;;;;;5090928;27;20035;-86
2022/03/04 05:13:09;;;;;;;46.67;18.15;;;-1.40;99.90;;;;;;5097235;27;20052;-85
2022/03/04 05:15:35;;;;;;;40.80;17.23;;;-1.40;99.90;;;;;;5087067;27;20376;-87
2022/03/04 05:18:01;;;;;;;50.20;19.63;;;-1.30;99.90;;;;;;5088076;27;20363;-86
2022/03/04 05:20:27;;;;;;;54.15;18.85;;;-1.50;99.90;;;;;;5113466;27;20138;-87
2022/03/04 05:22:53;;;;;;;48.38;18.58;;;-1.50;99.90;;;;;;5112898;27;20075;-86
2022/03/04 05:25:18;;;;;;;41.17;18.38;;;-1.50;99.90;;;;;;5089662;27;20071;-87
2022/03/04 05:27:45;;;;;;;51.60;18.75;;;-1.50;99.90;;;;;;5109375;27;20047;-86
2022/03/04 05:30:11;;;;;;;51.15;20.67;;;-1.50;99.90;;;;;;5080779;27;20047;-85
2022/03/04 05:32:37;;;;;;;59.58;21.90;;;-1.50;99.90;;;;;;5091848;27;20073;-86
2022/03/04 05:35:03;;;;;;;58.22;22.77;;;-1.50;99.90;;;;;;5094890;27;20051;-85
2022/03/04 05:37:29;;;;;;;57.67;21.10;;;-1.50;99.90;;;;;;5101237;28;20455;-85
2022/03/04 05:39:55;;;;;;;53.42;19.70;;;-1.40;99.90;;;;;;5101567;27;20031;-87
2022/03/04 05:42:21;;;;;;;54.35;19.67;;;-1.40;99.90;;;;;;5096378;27;20388;-85
2022/03/04 05:44:46;;;;;;;53.90;20.52;;;-1.40;99.90;;;;;;5094810;27;20412;-85
2022/03/04 05:47:12;;;;;;;56.20;21.52;;;-1.40;99.90;;;;;;5101542;27;20048;-87
2022/03/04 05:49:38;;;;;;;57.60;21.67;;;-1.40;99.90;;;;;;5101128;28;20043;-87
2022/03/04 05:52:05;;;;;;;53.35;20.17;;;-1.30;99.90;;;;;;5091042;27;20039;-88
2022/03/04 05:54:30;;;;;;;51.90;19.60;;;-1.30;99.90;;;;;;5091521;27;20435;-87
2022/03/04 05:56:56;;;;;;;53.00;21.17;;;-1.30;99.90;;;;;;5112764;27;20046;-87
2022/03/04 05:59:22;;;;;;;54.50;20.13;;;-1.30;99.90;;;;;;5112829;27;20042;-88
2022/03/04 06:01:48;;;;;;;50.20;19.88;;;-1.30;99.90;;;;;;5108935;27;20765;-88
2022/03/04 06:04:13;;;;;;;52.25;20.58;;;-1.30;99.90;;;;;;5102871;27;20043;-87
2022/03/04 06:06:39;;;;;;;48.88;20.42;;;-1.30;99.90;;;;;;5096998;27;20047;-88
2022/03/04 06:09:05;;;;;;;48.55;20.30;;;-1.30;99.90;;;;;;5096411;27;20043;-87
2022/03/04 06:11:31;;;;;;;55.67;21.92;;;-1.90;99.90;;;;;;5086348;27;20039;-86
2022/03/04 06:13:56;;;;;;;46.65;20.67;;;-1.20;99.90;;;;;;5085865;27;20484;-87
2022/03/04 06:16:22;;;;;;;60.35;21.73;;;-1.30;99.90;;;;;;5105597;27;20185;-88
2022/03/04 06:18:48;;;;;;;53.70;21.08;;;-1.30;99.90;;;;;;5087991;27;20123;-87
2022/03/04 06:21:14;;;;;;;49.67;20.65;;;-0.90;99.90;;;;;;5107430;27;20133;-88
2022/03/04 06:23:40;;;;;;;47.13;19.63;;;-1.30;99.90;;;;;;5085046;27;20304;-87
2022/03/04 06:26:06;;;;;;;50.63;19.08;;;-1.30;99.90;;;;;;5096099;27;20072;-88
2022/03/04 06:28:34;;;;;;;55.08;21.02;;;-1.30;99.90;;;;;;5079812;27;20054;-88
2022/03/04 06:30:59;;;;;;;53.60;21.38;;;0.60;99.90;;;;;;5093071;27;20137;-89
2022/03/04 06:33:35;;;;;;;52.53;20.77;;;-1.30;99.90;;;;;;5091440;27;20100;-88
2022/03/04 06:36:13;;;;;;;47.63;19.55;;;-1.20;99.90;;;;;;5074795;27;20044;-86
2022/03/04 06:38:41;;;;;;;51.65;20.50;;;-1.20;99.90;;;;;;5081346;27;20496;-87
2022/03/04 06:41:08;;;;;;;60.95;23.00;;;-1.20;99.90;;;;;;5073390;27;20062;-86
2022/03/04 06:43:34;;;;;;;62.75;22.10;;;-1.20;99.90;;;;;;5077623;27;20542;-86
2022/03/04 06:46:02;;;;;;;52.08;21.42;;;-1.20;99.90;;;;;;5076940;27;20069;-86
2022/03/04 06:48:28;;;;;;;49.60;20.98;;;-1.20;99.90;;;;;;5076061;27;20458;-87
2022/03/04 06:50:54;;;;;;;51.10;21.70;;;-1.10;99.90;;;;;;5078284;27;20278;-86
2022/03/04 06:53:20;;;;;;;53.50;21.15;;;-1.10;99.90;;;;;;5073881;27;20046;-87
2022/03/04 06:55:46;;;;;;;44.15;19.65;;;-1.20;99.90;;;;;;5089220;27;20061;-88
2022/03/04 06:58:13;;;;;;;52.85;21.75;;;0.20;99.90;;;;;;5073889;27;20058;-87
2022/03/04 07:00:41;;;;;;;47.75;19.85;;;-1.10;99.90;;;;;;5086835;27;20089;-86
2022/03/04 07:03:07;;;;;;;48.90;21.98;;;-1.10;99.90;;;;;;5070651;27;20047;-87
2022/03/04 07:05:33;;;;;;;54.28;21.15;;;-1.10;99.90;;;;;;5076320;27;20108;-86
2022/03/04 07:07:59;;;;;;;45.85;19.77;;;-1.10;99.90;;;;;;5092868;27;20135;-87
2022/03/04 07:10:24;;;;;;;46.83;20.58;;;-1.10;99.90;;;;;;5094179;27;20035;-87
2022/03/04 07:12:50;;;;;;;51.17;21.92;;;-1.10;99.90;;;;;;5079222;27;20568;-86
2022/03/04 07:15:17;;;;;;;53.70;21.13;;;-1.10;99.90;;;;;;5073819;28;20211;-87
2022/03/04 07:17:42;;;;;;;44.95;19.85;;;-1.00;99.90;;;;;;5076964;27;20492;-86
2022/03/04 07:20:09;;;;;;;50.83;21.80;;;-1.00;99.90;;;;;;5077316;27;20066;-86
2022/03/04 07:22:38;;;;;;;49.80;20.90;;;-1.00;99.90;;;;;;5078990;27;20047;-87
2022/03/04 07:25:08;;;;;;;48.42;21.20;;;-1.00;99.90;;;;;;5101493;27;20039;-87
2022/03/04 07:27:35;;;;;;;49.83;21.38;;;-0.90;99.90;;;;;;5079378;27;20039;-87
2022/03/04 07:30:03;;;;;;;44.80;19.50;;;-0.90;99.90;;;;;;5075022;27;20077;-87
2022/03/04 07:32:33;;;;;;;47.95;21.40;;;-0.90;99.90;;;;;;5077795;27;20051;-86
2022/03/04 07:34:59;;;;;;;46.63;19.58;;;0.40;99.90;;;;;;5084533;27;20047;-88
2022/03/04 07:37:26;;;;;;;44.25;18.85;;;-0.90;99.90;;;;;;5085971;27;20691;-85
2022/03/04 07:39:52;;;;;;;52.25;20.98;;;-0.90;99.90;;;;;;5079276;27;20407;-86
2022/03/04 07:42:17;;;;;;;41.10;19.80;;;-0.80;99.90;;;;;;5075787;28;20061;-86
2022/03/04 07:44:43;;;;;;;48.50;20.77;;;-0.80;99.90;;;;;;5093883;28;20496;-86
2022/03/04 07:47:09;;;;;;;47.05;20.45;;;0.60;99.90;;;;;;5086636;28;20947;-85
2022/03/04 07:49:35;;;;;;;45.10;20.30;;;-0.70;99.90;;;;;;5092194;27;20043;-86
2022/03/04 07:52:00;;;;;;;42.65;19.67;;;-0.70;99.90;;;;;;5089216;28;20047;-86
2022/03/04 07:54:26;;;;;;;48.30;21.10;;;-0.70;99.90;;;;;;5090058;28;20039;-86
2022/03/04 07:56:55;;;;;;;45.15;19.63;;;0.20;99.90;;;;;;5090954;28;20040;-86
2022/03/04 07:59:27;;;;;;;47.55;22.35;;;-0.60;99.90;;;;;;5075483;28;20071;-85
2022/03/04 08:01:53;;;;;;;43.88;21.20;;;-0.60;99.90;;;;;;5070929;28;20054;-86
2022/03/04 08:04:20;;;;;;;49.40;19.98;;;-0.60;99.90;;;;;;5089079;28;20048;-86
2022/03/04 08:06:45;;;;;;;42.53;20.23;;;-0.50;99.90;;;;;;5076956;28;20488;-85
2022/03/04 08:09:11;;;;;;;40.85;19.60;;;-0.50;99.90;;;;;;5076487;28;20054;-84
2022/03/04 08:11:37;;;;;;;45.25;21.88;;;-0.50;99.90;;;;;;5075674;28;20353;-86
2022/03/04 08:14:02;;;;;;;37.92;18.45;;;-0.50;99.90;;;;;;5100457;27;20536;-86
2022/03/04 08:16:29;;;;;;;41.10;19.33;;;-0.10;99.90;;;;;;5125979;27;20081;-87
2022/03/04 08:18:58;;;;;;;43.85;19.65;;;-0.50;99.90;;;;;;5098959;27;20045;-87
2022/03/04 08:21:25;;;;;;;49.35;21.48;;;-0.50;99.90;;;;;;5098865;27;20511;-86
2022/03/04 08:23:51;;;;;;;42.83;20.67;;;-0.20;99.90;;;;;;5092254;27;20039;-86
2022/03/04 08:26:17;;;;;;;48.42;19.92;;;-0.50;99.90;;;;;;5093882;27;20039;-87
2022/03/04 08:28:43;;;;;;;47.25;21.30;;;-0.50;99.90;;;;;;5110343;27;20070;-86
2022/03/04 08:31:11;;;;;;;43.40;20.05;;;-0.10;99.90;;;;;;5092652;27;20126;-86
2022/03/04 08:33:43;;;;;;;39.72;19.77;;;-0.40;99.90;;;;;;5091802;27;20063;-87
2022/03/04 08:36:09;;;;;;;44.80;19.90;;;-0.30;99.90;;;;;;5112678;27;20035;-85
2022/03/04 08:38:36;;;;;;;39.60;19.48;;;-0.30;99.90;;;;;;5094395;27;20051;-84
2022/03/04 08:41:01;;;;;;;43.63;20.83;;;-0.30;99.90;;;;;;5106143;27;20031;-86
2022/03/04 08:43:27;;;;;;;39.88;19.38;;;-0.20;99.90;;;;;;5104911;27;20031;-85
2022/03/04 08:45:53;;;;;;;40.90;20.08;;;-0.10;99.90;;;;;;5093608;27;20042;-86
2022/03/04 08:48:19;;;;;;;37.45;18.70;;;-0.10;99.90;;;;;;5091206;27;20039;-85
2022/03/04 08:50:45;;;;;;;39.30;18.98;;;0.60;99.90;;;;;;5094150;27;20050;-84
2022/03/04 08:53:11;;;;;;;39.70;19.25;;;0.00;99.90;;;;;;5117380;27;20388;-84
2022/03/04 08:55:41;;;;;;;35.50;17.05;;;0.00;99.90;;;;;;5095681;27;20823;-85
2022/03/04 08:58:07;;;;;;;36.03;18.38;;;0.00;99.90;;;;;;5097718;27;20058;-83
2022/03/04 09:00:33;;;;;;;40.42;20.45;;;1.20;99.90;;;;;;5097818;27;20042;-83
2022/03/04 09:02:59;;;;;;;42.55;19.15;;;0.10;99.90;;;;;;5111308;27;20388;-84
2022/03/04 09:05:25;;;;;;;37.63;18.63;;;0.20;99.90;;;;;;5097324;27;20039;-85
2022/03/04 09:07:50;;;;;;;43.80;20.02;;;0.30;99.90;;;;;;5091816;27;20042;-83
2022/03/04 09:10:16;;;;;;;38.88;19.90;;;0.40;99.90;;;;;;5102007;27;20035;-84
2022/03/04 09:12:42;;;;;;;36.60;18.20;;;0.60;99.90;;;;;;5096714;27;20083;-84
2022/03/04 09:15:08;;;;;;;37.28;19.33;;;0.80;99.90;;;;;;5098116;27;20614;-84
2022/03/04 09:17:35;;;;;;;32.10;17.63;;;0.90;99.90;;;;;;5111705;27;20035;-83
2022/03/04 09:20:01;;;;;;;35.80;17.85;;;1.00;99.90;;;;;;5112167;27;20041;-83
2022/03/04 09:22:27;;;;;;;34.80;17.88;;;0.80;99.90;;;;;;5093824;27;20095;-83
2022/03/04 09:24:52;;;;;;;31.00;16.48;;;0.70;99.90;;;;;;5094392;27;20043;-83
2022/03/04 09:27:18;;;;;;;34.03;16.77;;;0.60;99.90;;;;;;5095585;27;20198;-84
2022/03/04 09:29:45;;;;;;;34.47;17.75;;;0.70;99.90;;;;;;5112377;27;20043;-82
2022/03/04 09:32:11;;;;;;;37.58;19.13;;;0.70;99.90;;;;;;5110845;27;20047;-83
2022/03/04 09:34:37;;;;;;;35.72;18.20;;;0.80;99.90;;;;;;5114736;27;20650;-84
2022/03/04 09:37:03;;;;;;;35.25;17.95;;;1.00;99.90;;;;;;5095346;27;20057;-84
2022/03/04 09:39:29;;;;;;;35.58;17.88;;;1.40;99.90;;;;;;5115994;27;20551;-83
2022/03/04 09:41:55;;;;;;;33.78;18.77;;;1.60;99.90;;;;;;5106911;27;20072;-82
2022/03/04 09:44:21;;;;;;;32.05;17.60;;;1.70;99.90;;;;;;5098655;27;20047;-82
2022/03/04 09:46:47;;;;;;;29.27;16.27;;;1.80;99.90;;;;;;5101623;27;20039;-81
2022/03/04 09:49:16;;;;;;;35.08;17.95;;;1.80;99.90;;;;;;5100536;27;20041;-81
2022/03/04 09:51:41;;;;;;;32.45;17.80;;;1.80;99.90;;;;;;5118799;27;20054;-82
2022/03/04 09:54:07;;;;;;;33.60;17.58;;;1.70;99.90;;;;;;5109801;27;20039;-82
2022/03/04 09:56:33;;;;;;;37.25;18.17;;;1.60;99.90;;;;;;5113000;27;20062;-82
2022/03/04 09:58:59;;;;;;;35.92;16.70;;;1.60;99.90;;;;;;5114575;27;20050;-81
2022/03/04 10:01:24;;;;;;;33.30;17.67;;;1.90;99.90;;;;;;5111428;27;20050;-82
2022/03/04 10:03:52;;;;;;;30.55;16.33;;;2.20;99.90;;;;;;5110063;27;20073;-81
2022/03/04 10:06:19;;;;;;;30.10;17.30;;;2.50;99.90;;;;;;5108852;27;20089;-81
2022/03/04 10:08:53;;;;;;;31.10;15.20;;;2.50;99.90;;;;;;5125555;27;20400;-82
2022/03/04 10:11:33;;;;;;;32.10;17.58;;;2.60;99.90;;;;;;5094701;27;20077;-83
2022/03/04 10:14:01;;;;;;;29.50;15.40;;;3.40;99.90;;;;;;5093163;27;20138;-81
2022/03/04 10:16:36;;;;;;;26.70;15.23;;;2.50;99.90;;;;;;5110703;27;20137;-80
2022/03/04 10:19:08;;;;;;;28.38;15.00;;;2.50;99.90;;;;;;5113912;27;20035;-81
2022/03/04 10:21:55;;;;;;;27.98;14.40;;;2.50;99.90;;;;;;5109674;27;20059;-82
2022/03/04 10:24:29;;;;;;;26.55;14.23;;;2.60;99.90;;;;;;5115275;27;20039;-82
2022/03/04 10:27:12;;;;;;;28.23;15.57;;;2.60;99.90;;;;;;5112035;27;20073;-80
2022/03/04 10:29:39;;;;;;;27.83;15.48;;;2.60;99.90;;;;;;5095363;27;20069;-81
2022/03/04 10:32:14;;;;;;;29.65;15.63;;;3.00;99.90;;;;;;5098722;27;20045;-81
2022/03/04 10:34:45;;;;;;;28.05;14.18;;;2.70;99.90;;;;;;5093472;27;20128;-80
2022/03/04 10:37:11;;;;;;;;;;;2.80;99.90;;;;;;5109759;27;20057;-80
2022/03/04 10:39:55;;;;;;;26.90;13.82;;;2.90;99.90;;;;;;5108725;27;20497;-80
2022/03/04 10:42:43;;;;;;;26.90;14.80;;;3.00;99.90;;;;;;5094863;27;20146;-80
2022/03/04 10:45:15;;;;;;;25.80;14.40;;;3.10;99.90;;;;;;5113198;27;20099;-82
2022/03/04 10:47:46;;;;;;;26.17;14.30;;;3.10;99.90;;;;;;5113438;27;20051;-83
2022/03/04 10:50:13;;;;;;;28.58;14.32;;;3.20;99.90;;;;;;5096369;27;20102;-81
2022/03/04 10:52:57;;;;;;;27.02;13.55;;;3.30;99.90;;;;;;5096244;27;20038;-81
2022/03/04 10:55:31;;;;;;;25.52;13.85;;;3.40;99.90;;;;;;5111379;27;20141;-82
2022/03/04 10:57:59;;;;;;;23.33;14.13;;;3.50;99.90;;;;;;5093482;27;20399;-81
2022/03/04 11:00:28;;;;;;;27.80;14.18;;;3.90;99.90;;;;;;5095279;27;20209;-81
2022/03/04 11:02:54;;;;;;;25.67;13.60;;;3.60;99.90;;;;;;5095133;27;20077;-81
2022/03/04 11:05:21;;;;;;;22.60;13.30;;;3.70;99.90;;;;;;5096617;27;20468;-80
2022/03/04 11:07:47;;;;;;;25.95;14.20;;;3.60;99.90;;;;;;5108794;27;20042;-81
2022/03/04 11:10:13;;;;;;;24.17;13.68;;;4.00;99.90;;;;;;5108860;27;20509;-82
2022/03/04 11:12:42;;;;;;;24.83;14.25;;;4.50;99.90;;;;;;5101387;27;20047;-81
2022/03/04 11:15:11;;;;;;;22.38;13.48;;;4.10;99.90;;;;;;5092736;27;20058;-81
2022/03/04 11:17:38;;;;;;;23.90;14.35;;;4.20;99.90;;;;;;5100158;27;20134;-80
2022/03/04 11:20:06;;;;;;;24.02;13.73;;;4.30;99.90;;;;;;5105253;27;20035;-81
2022/03/04 11:22:33;;;;;;;23.00;12.35;;;4.40;99.90;;;;;;5102586;27;20074;-81
2022/03/04 11:25:05;;;;;;;24.15;14.05;;;4.50;99.90;;;;;;5098724;27;20523;-81
2022/03/04 11:27:38;;;;;;;21.98;13.20;;;4.60;99.90;;;;;;5100462;27;20461;-81
2022/03/04 11:30:05;;;;;;;23.00;13.60;;;4.70;99.90;;;;;;5099752;27;20564;-83
2022/03/04 11:32:31;;;;;;;22.52;13.75;;;4.80;99.90;;;;;;5102088;27;20042;-80
2022/03/04 11:34:56;;;;;;;24.42;13.63;;;5.00;99.90;;;;;;5115980;27;20491;-81
2022/03/04 11:37:23;;;;;;;22.05;12.73;;;5.00;99.90;;;;;;5097215;27;20035;-81
2022/03/04 11:40:32;;;;;;;25.55;14.25;;;5.10;99.90;;;;;;5094264;27;20131;-80
2022/03/04 11:42:52;;;;;;;24.08;13.60;;;4.90;99.90;;;;;;5117383;27;20130;-81
2022/03/04 11:45:32;;;;;;;21.95;13.60;;;5.30;99.90;;;;;;5118895;27;20829;-80
2022/03/04 11:48:08;;;;;;;20.65;13.05;;;5.50;99.90;;;;;;5118545;27;20443;-81
2022/03/04 11:50:54;;;;;;;21.83;13.55;;;5.60;99.90;;;;;;5104126;27;20102;-80
2022/03/04 11:53:22;;;;;;;23.73;13.63;;;5.70;99.90;;;;;;5123379;27;20411;-81
2022/03/04 11:56:14;;;;;;;23.45;12.90;;;5.80;99.90;;;;;;5103098;27;20125;-80
2022/03/04 11:58:59;;;;;;;21.40;12.85;;;5.80;99.90;;;;;;5087538;27;20055;-82
2022/03/04 12:01:33;;;;;;;20.10;12.38;;;6.00;99.90;;;;;;5121484;27;20088;-81
2022/03/04 12:04:13;;;;;;;24.70;14.05;;;6.10;99.90;;;;;;5119518;27;20145;-82
2022/03/04 12:06:39;;;;;;;23.20;13.63;;;7.20;99.90;;;;;;5103294;27;20103;-81
2022/03/04 12:09:25;;;;;;;24.55;13.80;;;6.20;99.90;;;;;;5120511;27;20099;-81
2022/03/04 12:12:10;;;;;;;22.35;12.90;;;6.30;99.90;;;;;;5101405;27;20047;-82
2022/03/04 12:14:35;;;;;;;21.83;12.70;;;6.40;99.90;;;;;;5085250;27;20058;-80
2022/03/04 12:17:01;;;;;;;23.98;14.48;;;6.60;99.90;;;;;;5079727;27;20424;-81
2022/03/04 12:19:33;;;;;;;21.35;12.52;;;6.60;99.90;;;;;;5064204;28;20047;-80
2022/03/04 12:21:59;;;;;;;24.80;12.18;;;6.60;99.90;;;;;;5090708;28;20062;-80
2022/03/04 12:24:32;;;;;;;22.02;12.70;;;6.70;99.90;;;;;;5074558;28;20156;-80
2022/03/04 12:26:59;;;;;;;20.38;12.10;;;6.90;99.90;;;;;;5070818;28;20043;-81
2022/03/04 12:29:45;;;;;;;19.90;11.57;;;7.10;99.90;;;;;;5093284;28;20046;-80
2022/03/04 12:32:12;;;;;;;20.52;13.20;;;7.00;99.90;;;;;;5094035;28;20043;-81
2022/03/04 12:34:47;;;;;;;21.95;12.57;;;7.10;99.90;;;;;;5090068;27;20043;-80